Latest Weather Observations for Mount Gellibrand

IDV60801

Issued at 2:42 am EDT Tuesday 10 December 2019 (issued every 10 minutes, with the page automatically refreshed every 10 minutes)

About weather observations | Map of weather stations | Latest weather observations for VIC | Other Formats
Station Details ID: 090035 Name: MOUNT GELLIBRAND Lat: -38.23 Lon: 143.79 Height: 261.0 m
Data from the previous 72 hours. | See also: Recent months at Mount Gellibrand
Date/Time
EDT
Temp
°C
App
Temp
°C
Dew
Point
°C
Rel
Hum
%
Delta-T
°C
Wind Press
QNH
hPa
Press
MSL
hPa
Rain since
9am
mm
Dir  Spd
km/h
Gust
km/h
Spd
kts
Gust
kts
10/02:30am 11.5 10.6 11.5 100 0.0 SW 7 9 4 5 1016.9 1016.3 0.2
10/02:00am 11.1 9.0 11.1 100 0.0 SSW 13 19 7 10 1016.2 1015.6 0.2
10/01:30am 11.6 9.6 11.6 100 0.0 WSW 13 17 7 9 1017.3 1016.7 0.2
10/01:00am 11.6 8.9 11.6 100 0.0 SSW 17 22 9 12 1016.1 1015.5 0.2
10/12:30am 11.9 9.6 11.9 100 0.0 SSW 15 20 8 11 1017.0 1016.4 0.0
10/12:00am 12.2 8.7 12.2 100 0.0 W 22 30 12 16 1018.4 1017.9 0.0
 
Date/Time
EDT
Temp
°C
App
Temp
°C
Dew
Point
°C
Rel
Hum
%
Delta-T
°C
Wind Press
QNH
hPa
Press
MSL
hPa
Rain since
9am
mm
Dir  Spd
km/h
Gust
km/h
Spd
kts
Gust
kts
09/11:30pm 12.2 10.4 12.2 100 0.0 WSW 13 19 7 10 1017.3 1016.7 0.0
09/11:00pm 12.2 9.7 12.2 100 0.0 W 17 28 9 15 1017.5 1016.9 0.0
09/10:30pm 12.1 9.5 12.1 100 0.0 WSW 17 26 9 14 1016.4 1015.8 0.0
09/10:00pm 12.1 7.1 12.1 100 0.0 SSW 30 39 16 21 1015.5 1015.0 0.0
09/09:58pm 12.1 7.1 12.1 100 0.0 SSW 30 39 16 21 1015.2 1014.7 0.0
09/09:30pm 12.4 8.2 12.4 100 0.0 WSW 26 33 14 18 1017.3 1016.7 0.0
09/09:00pm 12.9 7.7 12.9 100 0.0 W 32 44 17 24 1016.8 1016.2 0.0
09/08:30pm 13.0 8.2 13.0 100 0.0 WSW 30 39 16 21 1015.5 1015.0 0.0
09/08:00pm 13.7 8.8 13.7 100 0.0 W 32 46 17 25 1015.0 1014.5 0.0
09/07:30pm 15.3 9.7 14.5 95 0.5 WSW 37 50 20 27 1014.1 1013.5 0.0
09/07:00pm 16.7 10.0 14.7 88 1.2 WSW 43 56 23 30 1013.5 1012.9 0.0
09/06:30pm 17.6 11.6 14.5 82 1.8 WSW 39 52 21 28 1013.0 1012.4 0.0
09/06:02pm 19.2 10.3 13.2 68 3.4 WSW 52 70 28 38 1012.2 1011.6 0.0
09/06:00pm 19.6 10.7 13.1 66 3.7 WSW 52 70 28 38 1012.1 1011.5 0.0
09/05:58pm 20.5 12.0 12.0 58 4.8 WSW 48 70 26 38 1012.1 1011.5 0.0
09/05:44pm 23.9 17.4 8.3 37 8.4 WSW 32 52 17 28 1011.7 1011.2 0.0
09/05:30pm 27.2 21.2 7.1 28 10.8 WSW 28 39 15 21 1011.5 1010.9 0.0
09/05:00pm 27.3 21.3 7.2 28 10.8 SW 28 35 15 19 1011.3 1010.7 0.0
09/04:30pm 26.1 18.9 7.7 31 9.9 SW 35 48 19 26 1011.6 1011.0 0.0
09/04:04pm 25.7 16.8 11.8 42 8.0 WSW 50 69 27 37 1012.0 1011.4 0.0
09/04:00pm 25.7 15.2 11.1 40 8.3 WSW 57 76 31 41 1011.9 1011.3 0.0
09/03:52pm 27.6 17.5 12.4 39 8.9 WSW 57 76 31 41 1011.5 1010.9 0.0
09/03:45pm 31.9 24.9 6.9 21 13.7 WSW 33 69 18 37 1011.5 1010.9 0.0
09/03:44pm 32.6 26.0 6.0 19 14.4 WSW 30 56 16 30 1011.6 1011.0 0.0
09/03:30pm 32.8 28.3 6.2 19 14.5 WSW 19 24 10 13 1011.9 1011.3 0.0
09/03:00pm 34.3 25.6 -3.1 9 17.7 NW 33 43 18 23 1011.5 1010.9 0.0
09/02:46pm 33.7 26.3 -0.8 11 16.9 WNW 28 50 15 27 1011.6 1011.0 0.0
09/02:30pm 36.0 26.2 -3.4 8 18.8 WNW 39 50 21 27 1011.7 1011.2 0.0
09/02:00pm 34.3 26.2 -3.1 9 17.7 NW 30 41 16 22 1011.9 1011.3 0.0
09/01:30pm 33.3 26.4 0.1 12 16.4 NW 26 35 14 19 1012.6 1012.0 0.0
09/01:00pm 35.1 29.7 1.5 12 17.2 NNW 19 33 10 18 1012.9 1012.3 0.0
09/12:30pm 34.4 26.5 0.9 12 16.9 NW 32 43 17 23 1013.1 1012.5 0.0
09/12:00pm 32.6 24.6 1.7 14 15.6 NNW 33 41 18 22 1013.1 1012.5 0.0
09/11:30am 32.2 23.0 1.3 14 15.5 NNW 39 50 21 27 1012.9 1012.3 0.0
09/11:00am 30.8 22.1 2.1 16 14.5 NNW 37 48 20 26 1013.6 1013.0 0.0
09/10:30am 31.1 23.2 2.3 16 14.6 NNW 33 46 18 25 1013.7 1013.1 0.0
09/10:00am 29.1 21.0 3.1 19 13.2 NNW 35 46 19 25 1013.6 1013.0 0.0
09/09:30am 25.8 21.1 7.9 32 9.7 NNW 22 32 12 17 1014.1 1013.5 0.0
09/09:00am 24.3 19.6 7.9 35 8.8 N 22 28 12 15 1013.9 1013.3 0.0
09/08:30am 22.9 18.5 6.6 35 8.5 NNW 19 24 10 13 1014.0 1013.4 0.0
09/08:00am 21.5 17.1 5.0 34 8.2 NW 17 22 9 12 1013.7 1013.1 0.0
09/07:30am 21.1 17.4 4.6 34 8.2 WNW 13 19 7 10 1013.4 1012.8 0.0
09/07:00am 19.4 14.9 6.2 42 6.7 N 19 20 10 11 1013.3 1012.7 0.0
09/06:30am 18.4 13.2 7.2 48 5.7 NNE 24 28 13 15 1012.5 1011.9 0.0
09/06:00am 17.9 13.5 7.6 51 5.3 NNE 20 22 11 12 1012.4 1011.8 0.0
09/05:30am 17.2 14.2 10.6 65 3.6 NNE 17 20 9 11 1012.6 1012.0 0.0
09/05:00am 15.7 12.6 13.5 87 1.2 NNE 22 26 12 14 1012.4 1011.8 0.0
09/04:30am 15.7 12.0 12.6 82 1.7 NNE 24 30 13 16 1012.6 1012.0 0.0
09/04:00am 15.0 11.7 14.0 94 0.6 NE 24 28 13 15 1012.6 1012.0 0.0
09/03:30am 14.6 12.3 14.6 100 0.0 NE 20 26 11 14 1013.2 1012.6 0.0
09/03:00am 14.0 11.7 14.0 100 0.0 ENE 19 22 10 12 1013.7 1013.1 0.0
09/02:30am 14.3 11.9 14.3 100 0.0 NE 20 26 11 14 1014.2 1013.6 0.0
09/02:00am 14.2 11.4 14.2 100 0.0 ENE 22 26 12 14 1014.6 1014.0 0.0
09/01:30am 14.3 11.1 14.3 100 0.0 ENE 24 28 13 15 1015.0 1014.5 0.0
09/01:00am 13.7 10.3 13.7 100 0.0 ENE 24 28 13 15 1015.2 1014.7 0.0
09/12:30am 13.1 9.5 13.1 100 0.0 E 24 26 13 14 1015.7 1015.2 0.0
09/12:00am 12.8 9.1 12.8 100 0.0 E 24 26 13 14 1016.3 1015.7 0.0
 
Date/Time
EDT
Temp
°C
App
Temp
°C
Dew
Point
°C
Rel
Hum
%
Delta-T
°C
Wind Press
QNH
hPa
Press
MSL
hPa
Rain since
9am
mm
Dir  Spd
km/h
Gust
km/h
Spd
kts
Gust
kts
08/11:30pm 12.4 7.8 12.4 100 0.0 ENE 28 30 15 16 1016.3 1015.7 0.0
08/11:00pm 12.4 7.8 12.4 100 0.0 E 28 32 15 17 1016.3 1015.7 0.0
08/10:30pm 12.5 8.0 12.5 100 0.0 E 28 32 15 17 1016.5 1015.9 0.0
08/10:00pm 12.8 8.7 12.8 100 0.0 E 26 32 14 17 1016.7 1016.1 0.0
08/09:30pm 12.9 8.4 12.7 99 0.1 E 28 33 15 18 1016.7 1016.1 0.0
08/09:00pm 13.4 8.9 12.5 94 0.5 E 28 32 15 17 1016.6 1016.0 0.0
08/08:30pm 14.8 10.6 12.5 86 1.3 E 26 33 14 18 1016.8 1016.2 0.0
08/08:00pm 16.3 12.1 12.3 77 2.2 E 26 32 14 17 1016.8 1016.2 0.0
08/07:30pm 17.8 13.0 11.8 68 3.3 E 28 33 15 18 1016.6 1016.0 0.0
08/07:00pm 19.8 15.5 12.1 61 4.3 E 26 30 14 16 1016.4 1015.8 0.0
08/06:30pm 20.8 16.5 10.9 53 5.5 ESE 24 33 13 18 1016.4 1015.8 0.0
08/06:00pm 21.6 17.5 11.3 52 5.8 ESE 24 28 13 15 1016.4 1015.8 0.0
08/05:30pm 22.8 19.0 11.2 48 6.5 E 22 30 12 16 1016.5 1015.9 0.0
08/05:00pm 22.9 19.0 10.7 46 6.8 E 22 30 12 16 1016.7 1016.1 0.0
08/04:30pm 23.4 19.4 10.5 44 7.2 E 22 30 12 16 1016.8 1016.2 0.0
08/04:00pm 23.8 19.7 10.1 42 7.6 E 22 32 12 17 1017.0 1016.4 0.0
08/03:30pm 22.8 19.3 10.9 47 6.7 E 20 28 11 15 1017.2 1016.6 0.0
08/03:00pm 23.6 18.9 10.6 44 7.3 ENE 26 32 14 17 1017.4 1016.8 0.0
08/02:30pm 23.0 19.0 10.4 45 7.0 ENE 22 32 12 17 1017.5 1016.9 0.0
08/02:00pm 22.8 19.2 9.9 44 7.1 E 19 30 10 16 1017.9 1017.3 0.0
08/01:30pm 23.5 19.8 9.5 41 7.7 E 19 28 10 15 1018.2 1017.6 0.0
08/01:00pm 22.5 18.4 10.0 45 6.9 ENE 22 28 12 15 1018.4 1017.9 0.0
08/12:30pm 21.0 17.2 9.9 49 6.1 ENE 20 28 11 15 1018.7 1018.2 0.0
08/12:00pm 20.4 16.6 9.9 51 5.7 E 20 28 11 15 1018.9 1018.4 0.0
08/11:30am 19.6 16.0 10.6 56 4.9 E 20 30 11 16 1019.0 1018.5 0.0
08/11:00am 18.4 14.5 10.8 61 4.1 ENE 22 30 12 16 1018.7 1018.2 0.0
08/10:30am 16.5 12.7 11.0 70 3.0 E 22 30 12 16 1019.0 1018.5 0.0
08/10:00am 15.5 11.7 11.1 75 2.4 E 22 28 12 15 1019.0 1018.5 0.0
08/09:30am 14.9 10.9 10.5 75 2.3 E 22 35 12 19 1019.3 1018.8 0.0
08/09:00am 13.9 9.9 10.5 80 1.8 E 22 30 12 16 1019.5 1019.0 0.0
08/08:30am 12.1 8.8 11.0 93 0.6 ENE 19 28 10 15 1019.7 1019.2 0.0
08/08:00am 11.5 9.1 11.5 100 0.0 E 15 20 8 11 1019.4 1018.9 0.0
08/07:30am 10.4 8.1 10.4 100 0.0 E 13 17 7 9 1019.2 1018.7 0.0
08/07:00am 9.9 7.8 9.9 100 0.0 E 11 13 6 7 1019.3 1018.8 0.0
08/06:30am 9.5 7.3 9.5 100 0.0 ENE 11 15 6 8 1018.9 1018.4 0.0
08/06:00am 9.3 6.7 9.3 100 0.0 NE 13 17 7 9 1018.5 1018.0 0.0
08/05:30am 8.8 6.1 8.8 100 0.0 ENE 13 19 7 10 1018.1 1017.5 0.0
08/05:00am 8.1 6.0 8.1 100 0.0 ENE 9 13 5 7 1018.1 1017.5 0.0
08/04:30am 8.0 6.2 8.0 100 0.0 ESE 7 9 4 5 1018.3 1017.7 0.0
08/04:00am 8.2 6.1 8.2 100 0.0 SE 9 11 5 6 1018.3 1017.7 0.0
08/03:30am 8.4 5.9 8.4 100 0.0 SSE 11 13 6 7 1018.3 1017.7 0.0
08/03:00am 8.5 6.1 8.5 100 0.0 S 11 13 6 7 1018.5 1018.0 0.0
08/02:30am 8.6 6.2 8.6 100 0.0 SSW 11 13 6 7 1018.7 1018.2 0.0
08/02:00am 8.6 6.6 8.6 100 0.0 SSW 9 9 5 5 1018.9 1018.4 0.0
08/01:30am 8.7 6.3 8.7 100 0.0 SW 11 11 6 6 1019.1 1018.6 0.0
08/01:00am 9.0 7.1 9.0 100 0.0 SW 9 11 5 6 1019.2 1018.7 0.0
08/12:30am 9.3 7.1 9.3 100 0.0 SW 11 13 6 7 1019.4 1018.9 0.0
08/12:00am 9.1 6.8 9.1 100 0.0 SW 11 13 6 7 1019.4 1018.9 0.0
 
Date/Time
EDT
Temp
°C
App
Temp
°C
Dew
Point
°C
Rel
Hum
%
Delta-T
°C
Wind Press
QNH
hPa
Press
MSL
hPa
Rain since
9am
mm
Dir  Spd
km/h
Gust
km/h
Spd
kts
Gust
kts
07/11:30pm 9.4 6.8 9.4 100 0.0 SW 13 15 7 8 1019.2 1018.7 0.0
07/11:00pm 9.4 6.4 9.4 100 0.0 SW 15 17 8 9 1019.4 1018.9 0.0
07/10:30pm 9.6 6.3 9.6 100 0.0 SW 17 20 9 11 1019.3 1018.8 0.0
07/10:00pm 9.4 5.7 9.4 100 0.0 WSW 19 20 10 11 1019.1 1018.6 0.0
07/09:30pm 9.8 6.6 9.8 100 0.0 SW 17 19 9 10 1018.8 1018.3 0.0
07/09:00pm 10.2 6.6 9.9 98 0.2 SW 19 22 10 12 1018.8 1018.3 0.0
07/08:30pm 11.0 6.7 9.4 90 0.8 SW 22 28 12 15 1018.3 1017.7 0.0
07/08:00pm 12.9 8.9 9.2 78 1.9 SW 20 30 11 16 1018.2 1017.6 0.0
07/07:30pm 13.9 8.7 8.7 71 2.7 WSW 26 32 14 17 1017.7 1017.1 0.0
07/07:00pm 14.9 9.6 8.4 65 3.3 WSW 26 33 14 18 1017.4 1016.8 0.0
07/06:30pm 15.6 9.6 8.8 64 3.5 WSW 30 39 16 21 1017.1 1016.5 0.0
07/06:00pm 16.4 10.5 7.3 55 4.6 WSW 28 37 15 20 1016.7 1016.1 0.0
07/05:30pm 17.0 10.6 8.4 57 4.5 WSW 32 43 17 23 1016.5 1015.9 0.0
07/05:00pm 17.5 11.5 8.6 56 4.6 WSW 30 41 16 22 1016.8 1016.2 0.0
07/04:30pm 17.6 11.6 8.7 56 4.7 WSW 30 39 16 21 1016.7 1016.1 0.0
07/04:00pm 18.3 13.1 10.2 59 4.4 WSW 28 43 15 23 1016.6 1016.0 0.0
07/03:30pm 17.4 11.1 9.6 60 4.1 WSW 33 43 18 23 1016.8 1016.2 0.0
07/03:00pm 17.9 11.5 8.5 54 4.9 WSW 32 43 17 23 1016.4 1015.8 0.0
07/02:30pm 18.0 12.2 9.4 57 4.6 WSW 30 39 16 21 1016.4 1015.8 0.0
07/02:00pm 18.2 12.5 9.8 58 4.5 WSW 30 39 16 21 1016.2 1015.6 0.0
07/01:30pm 18.1 12.2 8.9 55 4.8 WSW 30 41 16 22 1016.0 1015.4 0.0
07/01:00pm 17.9 12.5 9.5 58 4.5 WSW 28 41 15 22 1016.1 1015.5 0.0
07/12:30pm 17.4 12.6 8.8 57 4.5 WSW 24 35 13 19 1016.0 1015.4 0.0
07/12:00pm 16.6 10.9 8.3 58 4.3 WSW 28 37 15 20 1016.1 1015.5 0.0
07/11:30am 16.3 11.2 9.3 63 3.7 WSW 26 37 14 20 1016.2 1015.6 0.0
07/11:00am 15.8 10.3 9.0 64 3.5 WSW 28 43 15 23 1016.4 1015.8 0.0
07/10:30am 14.9 10.3 9.5 70 2.8 WSW 24 35 13 19 1016.7 1016.1 0.0
07/10:00am 13.6 8.7 10.0 79 1.9 W 26 35 14 19 1016.6 1016.0 0.0
07/09:30am 12.5 7.2 9.7 83 1.4 WSW 28 37 15 20 1016.5 1015.9 0.0
07/09:00am 12.0 6.3 9.7 86 1.2 WSW 30 37 16 20 1016.5 1015.9 0.0
07/08:30am 10.9 6.2 10.6 98 0.2 W 26 35 14 19 1016.6 1016.0 0.0
07/08:00am 9.9 4.6 9.9 100 0.0 W 28 35 15 19 1016.3 1015.7 0.0
07/07:30am 9.2 4.5 9.2 100 0.0 W 24 30 13 16 1016.0 1015.4 0.0
07/07:00am 8.3 3.7 8.3 100 0.0 W 22 28 12 15 1016.0 1015.4 0.0
07/06:30am 8.0 3.7 8.0 100 0.0 W 20 28 11 15 1015.6 1015.1 0.0
07/06:00am 7.5 2.7 7.5 100 0.0 W 22 28 12 15 1015.3 1014.8 0.0
07/05:30am 7.4 3.0 7.4 100 0.0 W 20 24 11 13 1015.1 1014.6 0.0
07/05:00am 6.9 2.4 6.9 100 0.0 WNW 20 26 11 14 1014.9 1014.3 0.0
07/04:30am 7.2 2.8 7.2 100 0.0 WNW 20 24 11 13 1014.7 1014.1 0.0
07/04:00am 7.1 2.6 7.1 100 0.0 WNW 20 26 11 14 1014.6 1014.0 0.0
07/03:30am 6.9 2.4 6.9 100 0.0 W 20 24 11 13 1014.8 1014.2 0.0
07/03:00am 7.5 2.7 7.5 100 0.0 W 22 30 12 16 1014.9 1014.3 0.0

Other formats

Comma delimited format used in spreadsheet applications
http://www.bom.gov.au/fwo/IDV60801/IDV60801.95845.axf

JavaScript Object Notation format (JSON) in row-major order
http://www.bom.gov.au/fwo/IDV60801/IDV60801.95845.json

Data quality

Most of these data are generated automatically and are frequently updated. Quality checks on data are not normally performed. It is possible for incorrect values to appear. Refer to information at About Latest Weather Observations and please check the disclaimer before using these data.